sensor_id;sensor_type;location;lat;lon;timestamp;P1;durP1;ratioP1;P2;durP2;ratioP2
27899;SDS011;15243;50.726;7.080;2023-06-24T00:00:12;10.60;;;8.23;;
27899;SDS011;15243;50.726;7.080;2023-06-24T00:02:39;16.00;;;8.13;;
27899;SDS011;15243;50.726;7.080;2023-06-24T00:05:10;10.52;;;8.45;;
27899;SDS011;15243;50.726;7.080;2023-06-24T00:07:37;13.60;;;8.77;;
27899;SDS011;15243;50.726;7.080;2023-06-24T00:10:12;11.50;;;8.20;;
27899;SDS011;15243;50.726;7.080;2023-06-24T00:12:43;13.23;;;8.90;;
27899;SDS011;15243;50.726;7.080;2023-06-24T00:15:11;15.27;;;8.15;;
27899;SDS011;15243;50.726;7.080;2023-06-24T00:17:38;12.25;;;8.68;;
27899;SDS011;15243;50.726;7.080;2023-06-24T00:20:06;10.23;;;8.65;;
27899;SDS011;15243;50.726;7.080;2023-06-24T00:22:38;10.63;;;8.27;;
27899;SDS011;15243;50.726;7.080;2023-06-24T00:25:11;10.18;;;8.70;;
27899;SDS011;15243;50.726;7.080;2023-06-24T00:27:38;14.45;;;8.90;;
27899;SDS011;15243;50.726;7.080;2023-06-24T00:30:05;11.75;;;8.70;;
27899;SDS011;15243;50.726;7.080;2023-06-24T00:32:33;9.80;;;8.77;;
27899;SDS011;15243;50.726;7.080;2023-06-24T00:35:00;14.60;;;8.82;;
27899;SDS011;15243;50.726;7.080;2023-06-24T00:37:27;12.20;;;8.43;;
27899;SDS011;15243;50.726;7.080;2023-06-24T00:39:54;12.57;;;8.48;;
27899;SDS011;15243;50.726;7.080;2023-06-24T00:42:20;13.95;;;8.98;;
27899;SDS011;15243;50.726;7.080;2023-06-24T00:44:48;12.60;;;9.77;;
27899;SDS011;15243;50.726;7.080;2023-06-24T00:47:15;11.52;;;8.82;;
27899;SDS011;15243;50.726;7.080;2023-06-24T00:49:42;10.77;;;8.68;;
27899;SDS011;15243;50.726;7.080;2023-06-24T00:52:12;12.57;;;9.00;;
27899;SDS011;15243;50.726;7.080;2023-06-24T00:54:42;11.23;;;8.60;;
27899;SDS011;15243;50.726;7.080;2023-06-24T00:57:10;10.45;;;7.63;;
27899;SDS011;15243;50.726;7.080;2023-06-24T00:59:38;14.27;;;8.57;;
27899;SDS011;15243;50.726;7.080;2023-06-24T01:02:09;11.82;;;8.57;;
27899;SDS011;15243;50.726;7.080;2023-06-24T01:04:37;14.00;;;9.00;;
27899;SDS011;15243;50.726;7.080;2023-06-24T01:07:05;11.50;;;8.52;;
27899;SDS011;15243;50.726;7.080;2023-06-24T01:09:32;11.38;;;8.95;;
27899;SDS011;15243;50.726;7.080;2023-06-24T01:12:00;12.38;;;8.80;;
27899;SDS011;15243;50.726;7.080;2023-06-24T01:14:28;21.95;;;9.13;;
27899;SDS011;15243;50.726;7.080;2023-06-24T01:17:12;12.63;;;9.57;;
27899;SDS011;15243;50.726;7.080;2023-06-24T01:22:50;13.70;;;8.68;;
27899;SDS011;15243;50.726;7.080;2023-06-24T01:25:54;11.57;;;9.00;;
27899;SDS011;15243;50.726;7.080;2023-06-24T01:45:10;14.63;;;8.88;;
27899;SDS011;15243;50.726;7.080;2023-06-24T01:47:40;13.65;;;9.73;;
27899;SDS011;15243;50.726;7.080;2023-06-24T01:50:12;12.45;;;8.85;;
27899;SDS011;15243;50.726;7.080;2023-06-24T01:52:41;9.95;;;8.82;;
27899;SDS011;15243;50.726;7.080;2023-06-24T01:55:12;14.93;;;9.77;;
27899;SDS011;15243;50.726;7.080;2023-06-24T01:57:44;13.50;;;9.32;;
27899;SDS011;15243;50.726;7.080;2023-06-24T02:00:14;11.18;;;8.98;;
27899;SDS011;15243;50.726;7.080;2023-06-24T02:02:43;13.18;;;9.45;;
27899;SDS011;15243;50.726;7.080;2023-06-24T02:05:11;13.52;;;10.35;;
27899;SDS011;15243;50.726;7.080;2023-06-24T02:07:40;13.15;;;9.20;;
27899;SDS011;15243;50.726;7.080;2023-06-24T02:10:09;10.05;;;8.65;;
27899;SDS011;15243;50.726;7.080;2023-06-24T02:12:37;14.77;;;9.80;;
27899;SDS011;15243;50.726;7.080;2023-06-24T02:15:05;18.05;;;10.05;;
27899;SDS011;15243;50.726;7.080;2023-06-24T02:17:33;10.80;;;8.98;;
27899;SDS011;15243;50.726;7.080;2023-06-24T02:20:02;11.98;;;9.38;;
27899;SDS011;15243;50.726;7.080;2023-06-24T02:22:33;13.95;;;9.30;;
27899;SDS011;15243;50.726;7.080;2023-06-24T02:25:01;13.15;;;10.18;;
27899;SDS011;15243;50.726;7.080;2023-06-24T02:27:29;12.00;;;9.93;;
27899;SDS011;15243;50.726;7.080;2023-06-24T02:29:56;14.57;;;9.93;;
27899;SDS011;15243;50.726;7.080;2023-06-24T02:32:25;12.23;;;10.10;;
27899;SDS011;15243;50.726;7.080;2023-06-24T02:34:52;13.45;;;9.07;;
27899;SDS011;15243;50.726;7.080;2023-06-24T02:37:19;13.82;;;9.75;;
27899;SDS011;15243;50.726;7.080;2023-06-24T02:39:46;12.05;;;8.73;;
27899;SDS011;15243;50.726;7.080;2023-06-24T02:42:13;11.80;;;8.38;;
27899;SDS011;15243;50.726;7.080;2023-06-24T02:44:40;11.63;;;9.35;;
27899;SDS011;15243;50.726;7.080;2023-06-24T02:47:07;10.13;;;8.65;;
27899;SDS011;15243;50.726;7.080;2023-06-24T02:49:37;15.73;;;9.35;;
27899;SDS011;15243;50.726;7.080;2023-06-24T02:52:06;13.40;;;9.13;;
27899;SDS011;15243;50.726;7.080;2023-06-24T02:54:33;12.93;;;8.88;;
27899;SDS011;15243;50.726;7.080;2023-06-24T02:57:01;14.65;;;8.60;;
27899;SDS011;15243;50.726;7.080;2023-06-24T02:59:28;11.80;;;8.88;;
27899;SDS011;15243;50.726;7.080;2023-06-24T03:01:55;14.18;;;9.18;;
27899;SDS011;15243;50.726;7.080;2023-06-24T03:04:23;17.63;;;10.23;;
27899;SDS011;15243;50.726;7.080;2023-06-24T03:06:51;13.50;;;9.75;;
27899;SDS011;15243;50.726;7.080;2023-06-24T03:09:18;10.60;;;8.93;;
27899;SDS011;15243;50.726;7.080;2023-06-24T03:11:46;13.63;;;9.27;;
27899;SDS011;15243;50.726;7.080;2023-06-24T03:14:13;14.10;;;9.45;;
27899;SDS011;15243;50.726;7.080;2023-06-24T03:16:40;12.98;;;9.45;;
27899;SDS011;15243;50.726;7.080;2023-06-24T03:19:07;11.52;;;9.38;;
27899;SDS011;15243;50.726;7.080;2023-06-24T03:21:34;16.13;;;9.68;;
27899;SDS011;15243;50.726;7.080;2023-06-24T03:24:02;16.15;;;10.60;;
27899;SDS011;15243;50.726;7.080;2023-06-24T03:26:37;14.13;;;9.13;;
27899;SDS011;15243;50.726;7.080;2023-06-24T03:29:06;14.10;;;9.32;;
27899;SDS011;15243;50.726;7.080;2023-06-24T03:31:34;15.10;;;10.15;;
27899;SDS011;15243;50.726;7.080;2023-06-24T03:34:01;15.00;;;9.73;;
27899;SDS011;15243;50.726;7.080;2023-06-24T03:36:28;13.05;;;10.00;;
27899;SDS011;15243;50.726;7.080;2023-06-24T03:38:55;13.05;;;9.75;;
27899;SDS011;15243;50.726;7.080;2023-06-24T03:41:22;13.40;;;10.18;;
27899;SDS011;15243;50.726;7.080;2023-06-24T03:43:49;13.13;;;10.30;;
27899;SDS011;15243;50.726;7.080;2023-06-24T03:46:16;11.80;;;10.00;;
27899;SDS011;15243;50.726;7.080;2023-06-24T03:48:43;14.05;;;10.52;;
27899;SDS011;15243;50.726;7.080;2023-06-24T03:51:10;16.98;;;10.13;;
27899;SDS011;15243;50.726;7.080;2023-06-24T03:53:37;14.38;;;10.45;;
27899;SDS011;15243;50.726;7.080;2023-06-24T03:56:05;13.23;;;9.07;;
27899;SDS011;15243;50.726;7.080;2023-06-24T03:58:32;15.10;;;10.68;;
27899;SDS011;15243;50.726;7.080;2023-06-24T04:00:59;13.15;;;9.02;;
27899;SDS011;15243;50.726;7.080;2023-06-24T04:03:26;12.80;;;8.82;;
27899;SDS011;15243;50.726;7.080;2023-06-24T04:05:55;13.02;;;9.27;;
27899;SDS011;15243;50.726;7.080;2023-06-24T04:08:22;17.95;;;10.07;;
27899;SDS011;15243;50.726;7.080;2023-06-24T04:10:56;10.90;;;9.27;;
27899;SDS011;15243;50.726;7.080;2023-06-24T04:13:25;14.07;;;9.88;;
27899;SDS011;15243;50.726;7.080;2023-06-24T04:15:52;16.27;;;9.70;;
27899;SDS011;15243;50.726;7.080;2023-06-24T04:18:19;14.05;;;8.85;;
27899;SDS011;15243;50.726;7.080;2023-06-24T04:20:46;13.00;;;9.30;;
27899;SDS011;15243;50.726;7.080;2023-06-24T04:23:14;15.30;;;9.80;;
27899;SDS011;15243;50.726;7.080;2023-06-24T04:25:41;13.77;;;9.48;;
27899;SDS011;15243;50.726;7.080;2023-06-24T04:28:08;10.63;;;8.63;;
27899;SDS011;15243;50.726;7.080;2023-06-24T04:30:35;16.00;;;10.48;;
27899;SDS011;15243;50.726;7.080;2023-06-24T04:33:04;16.08;;;9.45;;
27899;SDS011;15243;50.726;7.080;2023-06-24T04:35:31;13.75;;;10.15;;
27899;SDS011;15243;50.726;7.080;2023-06-24T04:37:59;10.52;;;8.82;;
27899;SDS011;15243;50.726;7.080;2023-06-24T04:40:26;12.27;;;10.00;;
27899;SDS011;15243;50.726;7.080;2023-06-24T04:42:54;13.38;;;9.23;;
27899;SDS011;15243;50.726;7.080;2023-06-24T04:45:20;17.75;;;9.43;;
27899;SDS011;15243;50.726;7.080;2023-06-24T04:47:48;15.40;;;9.45;;
27899;SDS011;15243;50.726;7.080;2023-06-24T04:50:15;16.10;;;9.73;;
27899;SDS011;15243;50.726;7.080;2023-06-24T04:52:42;11.52;;;9.00;;
27899;SDS011;15243;50.726;7.080;2023-06-24T04:55:11;11.77;;;9.57;;
27899;SDS011;15243;50.726;7.080;2023-06-24T04:57:38;12.80;;;8.70;;
27899;SDS011;15243;50.726;7.080;2023-06-24T05:00:05;14.45;;;9.93;;
27899;SDS011;15243;50.726;7.080;2023-06-24T05:02:33;18.17;;;10.02;;
27899;SDS011;15243;50.726;7.080;2023-06-24T05:05:00;18.90;;;9.80;;
27899;SDS011;15243;50.726;7.080;2023-06-24T05:07:27;13.25;;;8.60;;
27899;SDS011;15243;50.726;7.080;2023-06-24T05:09:54;12.95;;;8.30;;
27899;SDS011;15243;50.726;7.080;2023-06-24T05:12:21;12.95;;;8.75;;
27899;SDS011;15243;50.726;7.080;2023-06-24T05:14:51;10.38;;;7.78;;
27899;SDS011;15243;50.726;7.080;2023-06-24T05:17:19;10.70;;;7.57;;
27899;SDS011;15243;50.726;7.080;2023-06-24T05:19:47;14.00;;;8.90;;
27899;SDS011;15243;50.726;7.080;2023-06-24T05:22:14;8.95;;;7.38;;
27899;SDS011;15243;50.726;7.080;2023-06-24T05:24:41;10.77;;;7.38;;
27899;SDS011;15243;50.726;7.080;2023-06-24T05:27:08;10.82;;;7.90;;
27899;SDS011;15243;50.726;7.080;2023-06-24T05:29:35;10.45;;;7.20;;
27899;SDS011;15243;50.726;7.080;2023-06-24T05:32:02;11.65;;;6.78;;
27899;SDS011;15243;50.726;7.080;2023-06-24T05:34:30;9.57;;;6.72;;
27899;SDS011;15243;50.726;7.080;2023-06-24T05:36:57;9.38;;;6.72;;
27899;SDS011;15243;50.726;7.080;2023-06-24T05:39:24;7.45;;;6.65;;
27899;SDS011;15243;50.726;7.080;2023-06-24T05:41:51;9.50;;;7.63;;
27899;SDS011;15243;50.726;7.080;2023-06-24T05:44:18;9.23;;;7.13;;
27899;SDS011;15243;50.726;7.080;2023-06-24T05:46:46;10.45;;;7.00;;
27899;SDS011;15243;50.726;7.080;2023-06-24T05:49:13;10.43;;;6.80;;
27899;SDS011;15243;50.726;7.080;2023-06-24T05:51:40;9.98;;;6.47;;
27899;SDS011;15243;50.726;7.080;2023-06-24T05:54:07;12.70;;;7.28;;
27899;SDS011;15243;50.726;7.080;2023-06-24T05:56:34;9.50;;;6.82;;
27899;SDS011;15243;50.726;7.080;2023-06-24T05:59:05;9.55;;;6.93;;
27899;SDS011;15243;50.726;7.080;2023-06-24T06:01:32;9.55;;;7.28;;
27899;SDS011;15243;50.726;7.080;2023-06-24T06:03:59;13.50;;;7.45;;
27899;SDS011;15243;50.726;7.080;2023-06-24T06:06:26;9.55;;;7.43;;
27899;SDS011;15243;50.726;7.080;2023-06-24T06:08:53;10.38;;;7.03;;
27899;SDS011;15243;50.726;7.080;2023-06-24T06:11:21;14.20;;;7.38;;
27899;SDS011;15243;50.726;7.080;2023-06-24T06:13:48;9.85;;;6.45;;
27899;SDS011;15243;50.726;7.080;2023-06-24T06:16:15;11.40;;;6.82;;
27899;SDS011;15243;50.726;7.080;2023-06-24T06:18:42;8.65;;;7.03;;
27899;SDS011;15243;50.726;7.080;2023-06-24T06:21:09;8.65;;;6.65;;
27899;SDS011;15243;50.726;7.080;2023-06-24T06:23:36;9.48;;;5.93;;
27899;SDS011;15243;50.726;7.080;2023-06-24T06:26:03;11.20;;;6.80;;
27899;SDS011;15243;50.726;7.080;2023-06-24T06:28:30;10.63;;;6.78;;
27899;SDS011;15243;50.726;7.080;2023-06-24T06:30:57;10.93;;;6.75;;
27899;SDS011;15243;50.726;7.080;2023-06-24T06:33:25;11.27;;;7.50;;
27899;SDS011;15243;50.726;7.080;2023-06-24T06:35:53;8.60;;;6.88;;
27899;SDS011;15243;50.726;7.080;2023-06-24T06:38:20;10.50;;;7.10;;
27899;SDS011;15243;50.726;7.080;2023-06-24T06:40:47;11.50;;;7.60;;
27899;SDS011;15243;50.726;7.080;2023-06-24T06:43:14;11.60;;;7.68;;
27899;SDS011;15243;50.726;7.080;2023-06-24T06:45:41;13.55;;;8.70;;
27899;SDS011;15243;50.726;7.080;2023-06-24T06:48:08;14.70;;;9.15;;
27899;SDS011;15243;50.726;7.080;2023-06-24T06:50:35;12.77;;;8.55;;
27899;SDS011;15243;50.726;7.080;2023-06-24T06:53:02;11.07;;;7.78;;
27899;SDS011;15243;50.726;7.080;2023-06-24T06:55:29;15.60;;;9.63;;
27899;SDS011;15243;50.726;7.080;2023-06-24T06:57:56;15.73;;;10.10;;
27899;SDS011;15243;50.726;7.080;2023-06-24T07:00:23;13.93;;;9.65;;
27899;SDS011;15243;50.726;7.080;2023-06-24T07:02:50;11.88;;;8.73;;
27899;SDS011;15243;50.726;7.080;2023-06-24T07:05:17;16.58;;;9.20;;
27899;SDS011;15243;50.726;7.080;2023-06-24T07:07:45;12.82;;;8.90;;
27899;SDS011;15243;50.726;7.080;2023-06-24T07:10:12;17.70;;;9.98;;
27899;SDS011;15243;50.726;7.080;2023-06-24T07:12:39;16.33;;;9.30;;
27899;SDS011;15243;50.726;7.080;2023-06-24T07:15:07;15.70;;;9.07;;
27899;SDS011;15243;50.726;7.080;2023-06-24T07:17:38;16.88;;;9.70;;
27899;SDS011;15243;50.726;7.080;2023-06-24T07:20:06;19.98;;;8.93;;
27899;SDS011;15243;50.726;7.080;2023-06-24T07:22:33;16.73;;;11.20;;
27899;SDS011;15243;50.726;7.080;2023-06-24T07:25:00;16.17;;;9.93;;
27899;SDS011;15243;50.726;7.080;2023-06-24T07:27:27;18.30;;;11.15;;
27899;SDS011;15243;50.726;7.080;2023-06-24T07:29:54;17.13;;;9.30;;
27899;SDS011;15243;50.726;7.080;2023-06-24T07:32:22;19.48;;;10.70;;
27899;SDS011;15243;50.726;7.080;2023-06-24T07:34:49;16.20;;;9.63;;
27899;SDS011;15243;50.726;7.080;2023-06-24T07:37:15;18.67;;;11.40;;
27899;SDS011;15243;50.726;7.080;2023-06-24T07:39:50;15.13;;;9.52;;
27899;SDS011;15243;50.726;7.080;2023-06-24T07:42:17;18.23;;;10.38;;
27899;SDS011;15243;50.726;7.080;2023-06-24T07:44:47;19.27;;;10.98;;
27899;SDS011;15243;50.726;7.080;2023-06-24T07:47:16;15.48;;;10.00;;
27899;SDS011;15243;50.726;7.080;2023-06-24T07:49:44;20.45;;;11.55;;
27899;SDS011;15243;50.726;7.080;2023-06-24T07:52:11;14.23;;;9.98;;
27899;SDS011;15243;50.726;7.080;2023-06-24T07:54:38;18.17;;;9.95;;
27899;SDS011;15243;50.726;7.080;2023-06-24T07:57:05;19.73;;;8.90;;
27899;SDS011;15243;50.726;7.080;2023-06-24T07:59:32;16.35;;;8.88;;
27899;SDS011;15243;50.726;7.080;2023-06-24T08:01:59;18.63;;;10.50;;
27899;SDS011;15243;50.726;7.080;2023-06-24T08:04:26;17.98;;;8.95;;
27899;SDS011;15243;50.726;7.080;2023-06-24T08:06:54;14.32;;;8.32;;
27899;SDS011;15243;50.726;7.080;2023-06-24T08:09:21;16.08;;;9.05;;
27899;SDS011;15243;50.726;7.080;2023-06-24T08:11:48;25.08;;;10.13;;
27899;SDS011;15243;50.726;7.080;2023-06-24T08:14:15;13.77;;;9.50;;
27899;SDS011;15243;50.726;7.080;2023-06-24T08:16:42;19.25;;;11.35;;
27899;SDS011;15243;50.726;7.080;2023-06-24T08:19:09;15.63;;;8.57;;
27899;SDS011;15243;50.726;7.080;2023-06-24T08:21:36;16.70;;;8.95;;
27899;SDS011;15243;50.726;7.080;2023-06-24T08:24:04;17.60;;;8.60;;
27899;SDS011;15243;50.726;7.080;2023-06-24T08:26:31;14.55;;;8.38;;
27899;SDS011;15243;50.726;7.080;2023-06-24T08:28:58;16.00;;;9.82;;
27899;SDS011;15243;50.726;7.080;2023-06-24T08:31:29;15.30;;;9.25;;
27899;SDS011;15243;50.726;7.080;2023-06-24T08:33:58;13.35;;;9.10;;
27899;SDS011;15243;50.726;7.080;2023-06-24T08:36:28;15.98;;;8.45;;
27899;SDS011;15243;50.726;7.080;2023-06-24T08:38:55;10.80;;;8.32;;
27899;SDS011;15243;50.726;7.080;2023-06-24T08:41:23;14.73;;;8.00;;
27899;SDS011;15243;50.726;7.080;2023-06-24T08:43:53;14.90;;;7.15;;
27899;SDS011;15243;50.726;7.080;2023-06-24T08:46:21;13.95;;;8.70;;
27899;SDS011;15243;50.726;7.080;2023-06-24T08:48:54;12.27;;;8.05;;
27899;SDS011;15243;50.726;7.080;2023-06-24T08:51:29;12.15;;;8.20;;
27899;SDS011;15243;50.726;7.080;2023-06-24T08:54:01;14.13;;;8.38;;
27899;SDS011;15243;50.726;7.080;2023-06-24T08:56:30;15.18;;;7.78;;
27899;SDS011;15243;50.726;7.080;2023-06-24T08:58:57;13.82;;;8.75;;
27899;SDS011;15243;50.726;7.080;2023-06-24T09:01:24;12.48;;;8.40;;
27899;SDS011;15243;50.726;7.080;2023-06-24T09:03:53;14.15;;;8.20;;
27899;SDS011;15243;50.726;7.080;2023-06-24T09:06:20;12.82;;;7.43;;
27899;SDS011;15243;50.726;7.080;2023-06-24T09:08:56;14.60;;;7.80;;
27899;SDS011;15243;50.726;7.080;2023-06-24T09:11:27;13.48;;;8.15;;
27899;SDS011;15243;50.726;7.080;2023-06-24T09:13:58;13.00;;;7.93;;
27899;SDS011;15243;50.726;7.080;2023-06-24T09:16:26;11.18;;;7.72;;
27899;SDS011;15243;50.726;7.080;2023-06-24T09:18:55;11.45;;;7.22;;
27899;SDS011;15243;50.726;7.080;2023-06-24T09:23:58;12.45;;;7.50;;
27899;SDS011;15243;50.726;7.080;2023-06-24T09:26:25;10.02;;;6.60;;
27899;SDS011;15243;50.726;7.080;2023-06-24T09:28:53;12.73;;;7.63;;
27899;SDS011;15243;50.726;7.080;2023-06-24T09:31:20;12.13;;;5.97;;
27899;SDS011;15243;50.726;7.080;2023-06-24T09:33:50;10.13;;;6.60;;
27899;SDS011;15243;50.726;7.080;2023-06-24T09:36:17;9.73;;;6.90;;
27899;SDS011;15243;50.726;7.080;2023-06-24T09:38:44;15.73;;;6.95;;
27899;SDS011;15243;50.726;7.080;2023-06-24T09:41:11;10.40;;;6.95;;
27899;SDS011;15243;50.726;7.080;2023-06-24T09:43:40;9.70;;;6.80;;
27899;SDS011;15243;50.726;7.080;2023-06-24T09:46:10;10.38;;;6.13;;
27899;SDS011;15243;50.726;7.080;2023-06-24T09:48:38;11.82;;;6.60;;
27899;SDS011;15243;50.726;7.080;2023-06-24T09:51:05;14.73;;;7.22;;
27899;SDS011;15243;50.726;7.080;2023-06-24T09:53:35;10.15;;;7.07;;
27899;SDS011;15243;50.726;7.080;2023-06-24T09:56:03;13.15;;;6.45;;
27899;SDS011;15243;50.726;7.080;2023-06-24T09:58:31;8.48;;;6.68;;
27899;SDS011;15243;50.726;7.080;2023-06-24T10:01:02;10.65;;;6.10;;
27899;SDS011;15243;50.726;7.080;2023-06-24T10:03:34;10.05;;;5.78;;
27899;SDS011;15243;50.726;7.080;2023-06-24T10:06:03;9.25;;;6.05;;
27899;SDS011;15243;50.726;7.080;2023-06-24T10:08:31;10.65;;;6.72;;
27899;SDS011;15243;50.726;7.080;2023-06-24T10:10:59;11.25;;;5.90;;
27899;SDS011;15243;50.726;7.080;2023-06-24T10:13:27;10.95;;;7.30;;
27899;SDS011;15243;50.726;7.080;2023-06-24T10:15:55;13.32;;;6.18;;
27899;SDS011;15243;50.726;7.080;2023-06-24T10:18:39;13.50;;;6.38;;
27899;SDS011;15243;50.726;7.080;2023-06-24T10:21:08;10.07;;;5.65;;
27899;SDS011;15243;50.726;7.080;2023-06-24T10:23:42;8.85;;;6.00;;
27899;SDS011;15243;50.726;7.080;2023-06-24T10:26:25;10.45;;;6.55;;
27899;SDS011;15243;50.726;7.080;2023-06-24T10:37:33;10.20;;;6.65;;
27899;SDS011;15243;50.726;7.080;2023-06-24T10:42:40;9.25;;;5.80;;
27899;SDS011;15243;50.726;7.080;2023-06-24T10:50:06;10.10;;;5.38;;
27899;SDS011;15243;50.726;7.080;2023-06-24T10:52:41;8.00;;;4.30;;
27899;SDS011;15243;50.726;7.080;2023-06-24T10:55:10;7.10;;;5.32;;
27899;SDS011;15243;50.726;7.080;2023-06-24T10:57:39;8.18;;;5.25;;
27899;SDS011;15243;50.726;7.080;2023-06-24T11:00:07;8.80;;;5.30;;
27899;SDS011;15243;50.726;7.080;2023-06-24T11:02:34;7.82;;;5.47;;
27899;SDS011;15243;50.726;7.080;2023-06-24T11:05:03;11.00;;;5.25;;
27899;SDS011;15243;50.726;7.080;2023-06-24T11:07:32;7.57;;;4.68;;
27899;SDS011;15243;50.726;7.080;2023-06-24T11:10:07;6.22;;;4.88;;
27899;SDS011;15243;50.726;7.080;2023-06-24T11:12:39;9.13;;;5.50;;
27899;SDS011;15243;50.726;7.080;2023-06-24T11:15:08;9.27;;;5.15;;
27899;SDS011;15243;50.726;7.080;2023-06-24T11:17:39;15.50;;;6.30;;
27899;SDS011;15243;50.726;7.080;2023-06-24T11:20:07;8.68;;;5.63;;
27899;SDS011;15243;50.726;7.080;2023-06-24T11:22:36;8.18;;;5.10;;
27899;SDS011;15243;50.726;7.080;2023-06-24T11:25:03;7.65;;;5.07;;
27899;SDS011;15243;50.726;7.080;2023-06-24T11:27:30;12.85;;;5.95;;
27899;SDS011;15243;50.726;7.080;2023-06-24T11:29:59;9.52;;;5.38;;
27899;SDS011;15243;50.726;7.080;2023-06-24T11:32:38;8.15;;;4.93;;
27899;SDS011;15243;50.726;7.080;2023-06-24T11:35:07;7.32;;;5.38;;
27899;SDS011;15243;50.726;7.080;2023-06-24T11:37:36;13.48;;;6.72;;
27899;SDS011;15243;50.726;7.080;2023-06-24T11:40:04;6.75;;;4.90;;
27899;SDS011;15243;50.726;7.080;2023-06-24T11:42:36;6.37;;;4.57;;
27899;SDS011;15243;50.726;7.080;2023-06-24T11:45:05;6.88;;;5.05;;
27899;SDS011;15243;50.726;7.080;2023-06-24T11:47:34;9.07;;;4.97;;
27899;SDS011;15243;50.726;7.080;2023-06-24T11:50:02;9.43;;;5.18;;
27899;SDS011;15243;50.726;7.080;2023-06-24T11:52:47;9.88;;;5.97;;
27899;SDS011;15243;50.726;7.080;2023-06-24T11:55:22;11.57;;;5.07;;
27899;SDS011;15243;50.726;7.080;2023-06-24T12:00:21;6.75;;;4.70;;
27899;SDS011;15243;50.726;7.080;2023-06-24T12:03:03;7.93;;;5.50;;
27899;SDS011;15243;50.726;7.080;2023-06-24T12:05:36;7.05;;;4.80;;
27899;SDS011;15243;50.726;7.080;2023-06-24T12:10:32;6.38;;;4.95;;
27899;SDS011;15243;50.726;7.080;2023-06-24T12:13:01;11.63;;;4.70;;
27899;SDS011;15243;50.726;7.080;2023-06-24T12:15:30;10.90;;;4.82;;
27899;SDS011;15243;50.726;7.080;2023-06-24T12:17:57;7.10;;;4.18;;
27899;SDS011;15243;50.726;7.080;2023-06-24T12:20:25;7.93;;;5.07;;
27899;SDS011;15243;50.726;7.080;2023-06-24T12:22:56;10.20;;;5.15;;
27899;SDS011;15243;50.726;7.080;2023-06-24T12:25:23;6.95;;;4.90;;
27899;SDS011;15243;50.726;7.080;2023-06-24T12:27:50;6.85;;;4.82;;
27899;SDS011;15243;50.726;7.080;2023-06-24T12:30:17;7.60;;;4.25;;
27899;SDS011;15243;50.726;7.080;2023-06-24T12:32:44;7.82;;;4.90;;
27899;SDS011;15243;50.726;7.080;2023-06-24T12:35:11;4.97;;;4.38;;
27899;SDS011;15243;50.726;7.080;2023-06-24T12:37:39;6.03;;;4.18;;
27899;SDS011;15243;50.726;7.080;2023-06-24T12:40:06;12.13;;;5.10;;
27899;SDS011;15243;50.726;7.080;2023-06-24T12:42:35;10.40;;;4.97;;
27899;SDS011;15243;50.726;7.080;2023-06-24T12:45:02;4.90;;;4.03;;
27899;SDS011;15243;50.726;7.080;2023-06-24T12:47:29;8.07;;;4.57;;
27899;SDS011;15243;50.726;7.080;2023-06-24T12:49:56;7.28;;;4.63;;
27899;SDS011;15243;50.726;7.080;2023-06-24T12:52:23;5.47;;;4.43;;
27899;SDS011;15243;50.726;7.080;2023-06-24T12:54:50;6.63;;;5.00;;
27899;SDS011;15243;50.726;7.080;2023-06-24T12:57:17;6.43;;;4.50;;
27899;SDS011;15243;50.726;7.080;2023-06-24T12:59:44;8.25;;;4.28;;
27899;SDS011;15243;50.726;7.080;2023-06-24T13:02:11;6.45;;;4.70;;
27899;SDS011;15243;50.726;7.080;2023-06-24T13:04:38;5.93;;;4.45;;
27899;SDS011;15243;50.726;7.080;2023-06-24T13:07:05;5.63;;;4.18;;
27899;SDS011;15243;50.726;7.080;2023-06-24T13:09:33;11.80;;;4.70;;
27899;SDS011;15243;50.726;7.080;2023-06-24T13:12:00;7.28;;;4.90;;
27899;SDS011;15243;50.726;7.080;2023-06-24T13:14:27;7.82;;;4.70;;
27899;SDS011;15243;50.726;7.080;2023-06-24T13:16:55;9.20;;;4.13;;
27899;SDS011;15243;50.726;7.080;2023-06-24T13:19:22;5.68;;;4.40;;
27899;SDS011;15243;50.726;7.080;2023-06-24T13:21:49;11.57;;;4.93;;
27899;SDS011;15243;50.726;7.080;2023-06-24T13:24:16;9.32;;;4.68;;
27899;SDS011;15243;50.726;7.080;2023-06-24T13:26:43;5.13;;;4.20;;
27899;SDS011;15243;50.726;7.080;2023-06-24T13:29:11;7.50;;;4.20;;
27899;SDS011;15243;50.726;7.080;2023-06-24T13:31:39;7.13;;;4.13;;
27899;SDS011;15243;50.726;7.080;2023-06-24T13:34:06;6.45;;;4.57;;
27899;SDS011;15243;50.726;7.080;2023-06-24T13:36:35;4.78;;;4.05;;
27899;SDS011;15243;50.726;7.080;2023-06-24T13:39:05;6.00;;;4.20;;
27899;SDS011;15243;50.726;7.080;2023-06-24T13:41:34;8.10;;;4.10;;
27899;SDS011;15243;50.726;7.080;2023-06-24T13:44:01;5.93;;;4.18;;
27899;SDS011;15243;50.726;7.080;2023-06-24T13:46:29;7.57;;;4.63;;
27899;SDS011;15243;50.726;7.080;2023-06-24T13:48:58;5.60;;;4.13;;
27899;SDS011;15243;50.726;7.080;2023-06-24T13:51:30;6.65;;;4.65;;
27899;SDS011;15243;50.726;7.080;2023-06-24T13:53:58;6.63;;;4.03;;
27899;SDS011;15243;50.726;7.080;2023-06-24T13:56:26;5.90;;;4.45;;
27899;SDS011;15243;50.726;7.080;2023-06-24T13:58:54;5.85;;;4.10;;
27899;SDS011;15243;50.726;7.080;2023-06-24T14:01:21;5.72;;;3.85;;
27899;SDS011;15243;50.726;7.080;2023-06-24T14:03:49;8.05;;;3.97;;
27899;SDS011;15243;50.726;7.080;2023-06-24T14:06:18;6.35;;;3.80;;
27899;SDS011;15243;50.726;7.080;2023-06-24T14:08:46;7.35;;;3.70;;
27899;SDS011;15243;50.726;7.080;2023-06-24T14:11:16;7.55;;;4.35;;
27899;SDS011;15243;50.726;7.080;2023-06-24T14:13:44;5.35;;;4.00;;
27899;SDS011;15243;50.726;7.080;2023-06-24T14:16:11;5.47;;;4.25;;
27899;SDS011;15243;50.726;7.080;2023-06-24T14:18:39;9.43;;;4.30;;
27899;SDS011;15243;50.726;7.080;2023-06-24T14:21:07;5.15;;;3.80;;
27899;SDS011;15243;50.726;7.080;2023-06-24T14:23:35;5.72;;;3.50;;
27899;SDS011;15243;50.726;7.080;2023-06-24T14:26:02;6.32;;;3.65;;
27899;SDS011;15243;50.726;7.080;2023-06-24T14:28:29;7.88;;;3.83;;
27899;SDS011;15243;50.726;7.080;2023-06-24T14:30:56;5.95;;;3.90;;
27899;SDS011;15243;50.726;7.080;2023-06-24T14:33:24;4.60;;;3.88;;
27899;SDS011;15243;50.726;7.080;2023-06-24T14:35:51;4.57;;;4.10;;
27899;SDS011;15243;50.726;7.080;2023-06-24T14:38:18;7.78;;;3.63;;
27899;SDS011;15243;50.726;7.080;2023-06-24T14:40:45;7.50;;;4.15;;
27899;SDS011;15243;50.726;7.080;2023-06-24T14:43:13;6.28;;;3.90;;
27899;SDS011;15243;50.726;7.080;2023-06-24T14:45:40;4.95;;;4.03;;
27899;SDS011;15243;50.726;7.080;2023-06-24T14:48:08;4.95;;;3.83;;
27899;SDS011;15243;50.726;7.080;2023-06-24T14:50:35;5.93;;;4.20;;
27899;SDS011;15243;50.726;7.080;2023-06-24T14:53:02;5.50;;;4.32;;
27899;SDS011;15243;50.726;7.080;2023-06-24T14:55:30;7.22;;;4.07;;
27899;SDS011;15243;50.726;7.080;2023-06-24T14:57:57;5.65;;;4.38;;
27899;SDS011;15243;50.726;7.080;2023-06-24T15:00:24;6.28;;;4.20;;
27899;SDS011;15243;50.726;7.080;2023-06-24T15:02:51;6.82;;;3.90;;
27899;SDS011;15243;50.726;7.080;2023-06-24T15:05:18;13.27;;;4.93;;
27899;SDS011;15243;50.726;7.080;2023-06-24T15:07:45;4.38;;;3.70;;
27899;SDS011;15243;50.726;7.080;2023-06-24T15:10:13;5.65;;;3.85;;
27899;SDS011;15243;50.726;7.080;2023-06-24T15:12:40;8.82;;;4.13;;
27899;SDS011;15243;50.726;7.080;2023-06-24T15:15:07;7.55;;;4.22;;
27899;SDS011;15243;50.726;7.080;2023-06-24T15:17:34;9.68;;;4.28;;
27899;SDS011;15243;50.726;7.080;2023-06-24T15:20:09;4.57;;;3.95;;
27899;SDS011;15243;50.726;7.080;2023-06-24T15:22:37;4.90;;;3.88;;
27899;SDS011;15243;50.726;7.080;2023-06-24T15:25:04;3.88;;;3.40;;
27899;SDS011;15243;50.726;7.080;2023-06-24T15:27:32;6.07;;;3.72;;